createdAt,value
2023-01-20T00:00:22.184Z,96080.38
2023-01-20T00:02:48.575Z,96080.75
2023-01-20T00:05:15.176Z,96091.22
2023-01-20T00:07:41.723Z,96099.91
2023-01-20T00:10:07.991Z,96104.97
2023-01-20T00:12:34.236Z,96103.72
2023-01-20T00:15:00.533Z,96106.31
2023-01-20T00:17:26.822Z,96107.13
2023-01-20T00:19:53.068Z,96100.09
2023-01-20T00:22:19.314Z,96109.94
2023-01-20T00:24:45.583Z,96108.50
2023-01-20T00:27:11.846Z,96120.78
2023-01-20T00:29:38.118Z,96115.81
2023-01-20T00:32:04.461Z,96116.81
2023-01-20T00:34:30.715Z,96118.78
2023-01-20T00:36:56.988Z,96119.78
2023-01-20T00:39:23.291Z,96127.41
2023-01-20T00:41:49.555Z,96133.19
2023-01-20T00:44:15.816Z,96138.88
2023-01-20T00:46:42.141Z,96140.69
2023-01-20T00:49:08.481Z,96137.44
2023-01-20T00:51:34.737Z,96139.59
2023-01-20T00:54:00.999Z,96142.41
2023-01-20T00:56:27.283Z,96144.22
2023-01-20T00:58:53.545Z,96149.47
2023-01-20T01:01:19.881Z,96149.63
2023-01-20T01:03:46.169Z,96163.09
2023-01-20T01:06:12.422Z,96154.97
2023-01-20T01:08:38.729Z,96159.41
2023-01-20T01:11:04.990Z,96161.22
2023-01-20T01:13:31.237Z,96167.00
2023-01-20T01:15:57.514Z,96162.94
2023-01-20T01:18:23.879Z,96175.84
2023-01-20T01:20:50.165Z,96175.41
2023-01-20T01:23:16.446Z,96183.25
2023-01-20T01:25:42.732Z,96182.44
2023-01-20T01:28:08.999Z,96186.06
2023-01-20T01:30:35.337Z,96196.97
2023-01-20T01:33:01.724Z,96200.94
2023-01-20T01:35:28.008Z,96206.00
2023-01-20T01:37:54.281Z,96208.44
2023-01-20T01:40:20.572Z,96207.28
2023-01-20T01:42:46.926Z,96206.63
2023-01-20T01:45:13.873Z,96213.31
2023-01-20T01:47:40.344Z,96218.19
2023-01-20T01:50:06.597Z,96222.44
2023-01-20T01:52:32.881Z,96229.47
2023-01-20T01:54:59.144Z,96230.56
2023-01-20T01:57:25.389Z,96227.56
2023-01-20T01:59:51.657Z,96226.59
2023-01-20T02:02:17.942Z,96230.38
2023-01-20T02:04:48.988Z,96242.47
2023-01-20T02:07:16.636Z,96250.34
2023-01-20T02:09:42.892Z,96237.31
2023-01-20T02:12:09.160Z,96235.34
2023-01-20T02:14:35.433Z,96245.91
2023-01-20T02:17:01.699Z,96247.34
2023-01-20T02:19:27.968Z,96244.34
2023-01-20T02:21:54.239Z,96251.94
2023-01-20T02:24:20.591Z,96251.69
2023-01-20T02:26:46.929Z,96257.19
2023-01-20T02:29:13.200Z,96259.44
2023-01-20T02:31:39.668Z,96260.72
2023-01-20T02:34:05.964Z,96259.72
2023-01-20T02:36:32.253Z,96258.53
2023-01-20T02:38:58.706Z,96268.66
2023-01-20T02:41:25.021Z,96264.22
2023-01-20T02:43:51.285Z,96272.25
2023-01-20T02:46:17.558Z,96271.44
2023-01-20T02:48:43.858Z,96273.88
2023-01-20T02:51:10.125Z,96276.16
2023-01-20T02:53:36.387Z,96279.03
2023-01-20T02:56:02.672Z,96269.53
2023-01-20T02:58:28.941Z,96278.41
2023-01-20T03:00:55.261Z,96279.56
2023-01-20T03:03:21.577Z,96279.69
2023-01-20T03:05:47.864Z,96277.25
2023-01-20T03:08:14.132Z,96290.50
2023-01-20T03:10:40.406Z,96290.34
2023-01-20T03:13:06.683Z,96290.50
2023-01-20T03:15:32.969Z,96296.56
2023-01-20T03:17:59.273Z,96299.19
2023-01-20T03:20:25.535Z,96291.69
2023-01-20T03:22:51.841Z,96301.81
2023-01-20T03:25:18.128Z,96301.44
2023-01-20T03:27:44.412Z,96302.44
2023-01-20T03:30:10.711Z,96301.00
2023-01-20T03:32:36.971Z,96317.53
2023-01-20T03:35:03.272Z,96320.06
2023-01-20T03:37:29.541Z,96316.81
2023-01-20T03:39:55.832Z,96320.41
2023-01-20T03:42:22.119Z,96320.25
2023-01-20T03:44:48.414Z,96319.59
2023-01-20T03:47:14.712Z,96322.03
2023-01-20T03:49:40.968Z,96331.72
2023-01-20T03:52:07.269Z,96332.53
2023-01-20T03:54:33.560Z,96338.41
2023-01-20T03:56:59.837Z,96334.78
2023-01-20T03:59:26.124Z,96343.28
2023-01-20T04:01:52.481Z,96340.84
2023-01-20T04:04:18.858Z,96335.41
2023-01-20T04:06:45.143Z,96333.25
2023-01-20T04:09:11.415Z,96349.16
2023-01-20T04:11:37.683Z,96349.97
2023-01-20T04:14:03.955Z,96352.31
2023-01-20T04:16:30.243Z,96348.16
2023-01-20T04:18:56.508Z,96358.00
2023-01-20T04:21:22.873Z,96354.13
2023-01-20T04:23:49.129Z,96351.41
2023-01-20T04:26:15.414Z,96350.97
2023-01-20T04:28:41.683Z,96344.09
2023-01-20T04:31:18.108Z,96351.69
2023-01-20T04:33:51.202Z,96353.41
2023-01-20T04:36:17.468Z,96359.53
2023-01-20T04:38:43.761Z,96359.06
2023-01-20T04:41:10.038Z,96371.53
2023-01-20T04:43:36.292Z,96369.84
2023-01-20T04:46:02.600Z,96373.00
2023-01-20T04:48:28.904Z,96388.00
2023-01-20T04:50:55.200Z,96394.84
2023-01-20T04:53:21.663Z,96398.00
2023-01-20T04:55:47.968Z,96407.03
2023-01-20T04:58:14.227Z,96413.72
2023-01-20T05:00:42.384Z,96416.25
2023-01-20T05:03:09.794Z,96418.97
2023-01-20T05:05:36.104Z,96426.19
2023-01-20T05:08:02.383Z,96436.50
2023-01-20T05:10:28.664Z,96435.31
2023-01-20T05:12:54.917Z,96443.00
2023-01-20T05:15:21.176Z,96449.50
2023-01-20T05:17:47.451Z,96463.88
2023-01-20T05:20:13.811Z,96461.91
2023-01-20T05:22:40.058Z,96459.88
2023-01-20T05:25:06.318Z,96473.06
2023-01-20T05:27:32.875Z,96478.47
2023-01-20T05:29:59.205Z,96479.81
2023-01-20T05:32:25.490Z,96490.28
2023-01-20T05:34:51.783Z,96485.28
2023-01-20T05:37:18.037Z,96491.22
2023-01-20T05:39:44.285Z,96493.84
2023-01-20T05:42:10.633Z,96505.59
2023-01-20T05:44:36.898Z,96505.59
2023-01-20T05:47:03.178Z,96503.50
2023-01-20T05:49:29.523Z,96504.13
2023-01-20T05:51:55.823Z,96512.28
2023-01-20T05:54:22.115Z,96510.66
2023-01-20T05:56:48.416Z,96513.91
2023-01-20T05:59:14.740Z,96522.59
2023-01-20T06:01:41.013Z,96518.50
2023-01-20T06:04:07.326Z,96519.50
2023-01-20T06:06:33.608Z,96520.50
2023-01-20T06:08:59.877Z,96526.06
2023-01-20T06:11:26.158Z,96539.50
2023-01-20T06:13:52.419Z,96533.94
2023-01-20T06:16:18.704Z,96533.13
2023-01-20T06:18:44.996Z,96532.31
2023-01-20T06:21:11.279Z,96548.19
2023-01-20T06:23:37.568Z,96556.03
2023-01-20T06:26:03.917Z,96558.47
2023-01-20T06:28:30.234Z,96570.47
2023-01-20T06:30:56.539Z,96570.00
2023-01-20T06:33:22.823Z,96576.72
2023-01-20T06:35:49.091Z,96579.34
2023-01-20T06:38:15.397Z,96584.31
2023-01-20T06:40:41.695Z,96585.94
2023-01-20T06:43:07.982Z,96592.63
2023-01-20T06:45:34.293Z,96599.88
2023-01-20T06:48:00.572Z,96605.59
2023-01-20T06:50:26.845Z,96608.22
2023-01-20T06:52:53.105Z,96606.09
2023-01-20T06:55:19.387Z,96605.75
2023-01-20T06:57:45.682Z,96612.94
2023-01-20T07:00:11.986Z,96610.78
2023-01-20T07:02:38.287Z,96606.03
2023-01-20T07:05:04.635Z,96622.72
2023-01-20T07:07:30.907Z,96632.38
2023-01-20T07:09:57.155Z,96634.19
2023-01-20T07:12:23.460Z,96646.28
2023-01-20T07:14:49.730Z,96639.09
2023-01-20T07:17:16.005Z,96646.63
2023-01-20T07:19:42.280Z,96648.09
2023-01-20T07:22:08.569Z,96651.69
2023-01-20T07:24:34.856Z,96654.78
2023-01-20T07:27:01.124Z,96652.97
2023-01-20T07:29:27.406Z,96662.47
2023-01-20T07:31:53.732Z,96664.28
2023-01-20T07:34:20.091Z,96672.13
2023-01-20T07:36:46.387Z,96676.72
2023-01-20T07:39:12.656Z,96682.59
2023-01-20T07:41:38.945Z,96679.81
2023-01-20T07:44:05.262Z,96686.84
2023-01-20T07:46:31.543Z,96691.25
2023-01-20T07:48:57.838Z,96705.00
2023-01-20T07:51:24.127Z,96706.81
2023-01-20T07:53:50.408Z,96707.97
2023-01-20T07:56:16.676Z,96712.69
2023-01-20T07:58:42.963Z,96720.84
2023-01-20T08:01:09.441Z,96719.69
2023-01-20T08:03:35.762Z,96725.59
2023-01-20T08:06:02.064Z,96730.84
2023-01-20T08:08:28.321Z,96734.75
2023-01-20T08:10:54.640Z,96735.59
2023-01-20T08:13:20.974Z,96737.41
2023-01-20T08:15:47.330Z,96742.31
2023-01-20T08:18:13.594Z,96750.50
2023-01-20T08:20:39.919Z,96756.84
2023-01-20T08:23:06.186Z,96755.72
2023-01-20T08:25:32.452Z,96758.16
2023-01-20T08:27:58.700Z,96765.34
2023-01-20T08:30:25.112Z,96767.59
2023-01-20T08:32:51.444Z,96770.06
2023-01-20T08:35:17.719Z,96778.41
2023-01-20T08:37:44.001Z,96775.44
2023-01-20T08:40:10.304Z,96780.84
2023-01-20T08:42:36.599Z,96781.63
2023-01-20T08:45:02.895Z,96783.28
2023-01-20T08:47:29.182Z,96780.31
2023-01-20T08:49:55.460Z,96788.81
2023-01-20T08:52:21.733Z,96799.44
2023-01-20T08:54:48.010Z,96795.03
2023-01-20T08:57:14.261Z,96796.47
2023-01-20T08:59:40.551Z,96807.94
2023-01-20T09:02:06.890Z,96809.38
2023-01-20T09:04:33.196Z,96809.84
2023-01-20T09:06:59.487Z,96819.81
2023-01-20T09:09:25.767Z,96827.66
2023-01-20T09:11:52.142Z,96829.78
2023-01-20T09:14:18.430Z,96840.28
2023-01-20T09:16:44.708Z,96839.13
2023-01-20T09:19:10.960Z,96847.31
2023-01-20T09:21:37.275Z,96850.41
2023-01-20T09:24:03.560Z,96848.75
2023-01-20T09:26:35.832Z,96843.97
2023-01-20T09:29:02.416Z,96846.25
2023-01-20T09:31:28.765Z,96852.47
2023-01-20T09:33:55.094Z,96854.56
2023-01-20T09:36:21.392Z,96854.56
2023-01-20T09:38:47.671Z,96858.16
2023-01-20T09:41:13.982Z,96862.06
2023-01-20T09:43:40.260Z,96860.25
2023-01-20T09:46:06.616Z,96871.03
2023-01-20T09:48:32.919Z,96865.13
2023-01-20T09:50:59.203Z,96865.72
2023-01-20T09:53:25.574Z,96868.63
2023-01-20T09:55:51.886Z,96866.94
2023-01-20T09:58:18.182Z,96868.72
2023-01-20T10:00:44.470Z,96866.56
2023-01-20T10:03:10.760Z,96879.31
2023-01-20T10:05:37.084Z,96874.84
2023-01-20T10:08:03.459Z,96871.88
2023-01-20T10:10:29.731Z,96882.66
2023-01-20T10:12:56.010Z,96871.81
2023-01-20T10:15:22.272Z,96873.25
2023-01-20T10:17:48.537Z,96873.31
2023-01-20T10:20:15.039Z,96879.22
2023-01-20T10:22:41.456Z,96875.84
2023-01-20T10:25:07.740Z,96875.94
2023-01-20T10:27:34.057Z,96878.09
2023-01-20T10:30:00.342Z,96885.88
2023-01-20T10:32:26.627Z,96881.09
2023-01-20T10:34:54.474Z,96891.34
2023-01-20T10:37:22.535Z,96883.25
2023-01-20T10:39:48.844Z,96887.91
2023-01-20T10:42:15.150Z,96889.88
2023-01-20T10:44:41.427Z,96888.44
2023-01-20T10:47:07.741Z,96894.50
2023-01-20T10:49:33.996Z,96895.97
2023-01-20T10:52:00.272Z,96892.53
2023-01-20T10:54:26.556Z,96893.81
2023-01-20T10:56:52.860Z,96890.34
2023-01-20T10:59:19.134Z,96881.66
2023-01-20T11:01:45.581Z,96890.72
2023-01-20T11:04:11.872Z,96892.44
2023-01-20T11:06:38.156Z,96896.19
2023-01-20T11:09:04.425Z,96894.03
2023-01-20T11:11:30.726Z,96890.50
2023-01-20T11:13:57.007Z,96890.44
2023-01-20T11:16:23.284Z,96895.22
2023-01-20T11:18:49.554Z,96894.94
2023-01-20T11:21:15.812Z,96898.56
2023-01-20T11:23:42.108Z,96888.88
2023-01-20T11:26:08.369Z,96897.84
2023-01-20T11:28:34.672Z,96894.69
2023-01-20T11:31:01.067Z,96895.97
2023-01-20T11:33:27.483Z,96897.69
2023-01-20T11:35:53.754Z,96903.69
2023-01-20T11:38:20.062Z,96908.22
2023-01-20T11:40:46.365Z,96899.16
2023-01-20T11:43:12.644Z,96907.31
2023-01-20T11:45:38.922Z,96896.72
2023-01-20T11:48:05.185Z,96894.91
2023-01-20T11:50:31.437Z,96891.81
2023-01-20T11:52:57.734Z,96904.88
2023-01-20T11:55:23.991Z,96901.53
2023-01-20T11:57:50.265Z,96906.16
2023-01-20T12:00:17.012Z,96902.97
2023-01-20T12:02:43.573Z,96897.97
2023-01-20T12:05:09.857Z,96895.81
2023-01-20T12:07:36.133Z,96902.50
2023-01-20T12:10:05.266Z,96900.50
2023-01-20T12:12:33.764Z,96904.59
2023-01-20T12:15:00.239Z,96908.84
2023-01-20T12:17:26.527Z,96905.41
2023-01-20T12:19:52.809Z,96905.22
2023-01-20T12:22:19.076Z,96904.41
2023-01-20T12:24:45.357Z,96903.69
2023-01-20T12:27:11.654Z,96904.31
2023-01-20T12:29:37.918Z,96913.66
2023-01-20T12:32:04.198Z,96909.84
2023-01-20T12:34:30.548Z,96912.06
2023-01-20T12:36:56.856Z,96911.53
2023-01-20T12:39:23.118Z,96916.09
2023-01-20T12:41:49.419Z,96918.16
2023-01-20T12:44:15.720Z,96913.16
2023-01-20T12:46:42.011Z,96915.03
2023-01-20T12:49:08.329Z,96910.16
2023-01-20T12:51:34.577Z,96914.78
2023-01-20T12:54:00.837Z,96910.72
2023-01-20T12:56:27.115Z,96917.59
2023-01-20T12:58:53.419Z,96910.34
2023-01-20T13:01:19.703Z,96909.59
2023-01-20T13:03:45.982Z,96907.03
2023-01-20T13:06:12.226Z,96913.56
2023-01-20T13:08:38.479Z,96902.03
2023-01-20T13:11:04.736Z,96909.72
2023-01-20T13:13:30.993Z,96908.53
2023-01-20T13:15:57.266Z,96914.81
2023-01-20T13:18:23.558Z,96908.81
2023-01-20T13:20:49.857Z,96909.72
2023-01-20T13:23:16.133Z,96909.19
2023-01-20T13:25:42.445Z,96911.63
2023-01-20T13:28:08.743Z,96915.44
2023-01-20T13:30:35.134Z,96905.34
2023-01-20T13:33:01.472Z,96908.06
2023-01-20T13:35:27.732Z,96915.59
2023-01-20T13:37:54.011Z,96920.03
2023-01-20T13:40:20.298Z,96911.50
2023-01-20T13:42:46.573Z,96920.66
2023-01-20T13:45:13.079Z,96916.34
2023-01-20T13:47:39.604Z,96913.69
2023-01-20T13:50:05.881Z,96918.97
2023-01-20T13:52:32.179Z,96925.50
2023-01-20T13:54:58.469Z,96937.41
2023-01-20T13:57:25.036Z,96938.84
2023-01-20T13:59:51.306Z,96938.28
2023-01-20T14:02:17.577Z,96938.28
2023-01-20T14:04:43.872Z,96932.03
2023-01-20T14:07:10.132Z,96940.50
2023-01-20T14:09:36.419Z,96942.56
2023-01-20T14:12:02.711Z,96937.09
2023-01-20T14:14:28.996Z,96936.53
2023-01-20T14:16:55.266Z,96946.91
2023-01-20T14:19:21.544Z,96958.88
2023-01-20T14:21:47.826Z,96945.53
2023-01-20T14:24:14.100Z,96943.69
2023-01-20T14:26:40.360Z,96940.84
2023-01-20T14:29:06.723Z,96949.44
2023-01-20T14:31:34.349Z,96954.09
2023-01-20T14:34:00.765Z,96951.47
2023-01-20T14:36:27.059Z,96949.00
2023-01-20T14:38:57.772Z,96953.03
2023-01-20T14:41:24.664Z,96956.66
2023-01-20T14:43:50.931Z,96950.19
2023-01-20T14:46:17.236Z,96956.28
2023-01-20T14:48:43.548Z,96964.38
2023-01-20T14:51:12.173Z,96964.38
2023-01-20T14:53:39.261Z,96958.91
2023-01-20T14:56:05.548Z,96967.66
2023-01-20T14:58:31.848Z,96964.00
2023-01-20T15:00:58.143Z,96963.81
2023-01-20T15:03:24.454Z,96956.72
2023-01-20T15:05:50.770Z,96964.00
2023-01-20T15:08:17.058Z,96971.19
2023-01-20T15:10:43.306Z,96972.00
2023-01-20T15:13:09.582Z,96976.44
2023-01-20T15:15:35.932Z,96979.34
2023-01-20T15:18:02.281Z,96984.44
2023-01-20T15:20:28.531Z,96980.78
2023-01-20T15:22:54.834Z,96980.28
2023-01-20T15:25:21.132Z,96977.19
2023-01-20T15:27:47.386Z,96979.84
2023-01-20T15:30:14.032Z,96981.47
2023-01-20T15:32:40.455Z,96985.34
2023-01-20T15:35:06.742Z,96982.91
2023-01-20T15:37:33.033Z,96984.09
2023-01-20T15:39:59.333Z,96987.19
2023-01-20T15:42:25.610Z,96982.47
2023-01-20T15:44:51.914Z,96985.66
2023-01-20T15:47:18.204Z,96987.84
2023-01-20T15:49:44.479Z,96988.22
2023-01-20T15:52:10.771Z,96989.47
2023-01-20T15:54:37.043Z,96986.66
2023-01-20T15:57:03.306Z,96987.91
2023-01-20T15:59:29.573Z,96988.81
2023-01-20T16:01:55.864Z,96992.91
2023-01-20T16:04:22.155Z,96994.53
2023-01-20T16:06:48.440Z,96994.34
2023-01-20T16:09:14.725Z,96990.69
2023-01-20T16:11:40.976Z,96989.44
2023-01-20T16:14:07.233Z,96989.63
2023-01-20T16:16:33.689Z,96992.19
2023-01-20T16:18:59.990Z,96993.00
2023-01-20T16:21:26.268Z,96996.31
2023-01-20T16:23:52.552Z,96996.69
2023-01-20T16:26:18.826Z,96997.50
2023-01-20T16:28:45.124Z,96992.88
2023-01-20T16:31:11.527Z,96996.06
2023-01-20T16:33:37.881Z,96991.34
2023-01-20T16:36:04.155Z,96995.88
2023-01-20T16:38:30.413Z,96992.69
2023-01-20T16:40:56.672Z,96997.97
2023-01-20T16:43:22.954Z,96996.88
2023-01-20T16:45:49.284Z,97003.78
2023-01-20T16:48:15.584Z,96998.34
2023-01-20T16:50:41.888Z,97004.97
2023-01-20T16:53:08.142Z,97004.78
2023-01-20T16:55:34.416Z,97013.31
2023-01-20T16:58:00.702Z,97008.41
2023-01-20T17:00:26.988Z,97011.88
2023-01-20T17:02:53.303Z,97017.31
2023-01-20T17:05:19.581Z,97017.13
2023-01-20T17:07:45.862Z,97013.22
2023-01-20T17:10:12.198Z,97017.22
2023-01-20T17:12:38.500Z,97016.31
2023-01-20T17:15:04.797Z,97016.22
2023-01-20T17:17:31.084Z,97011.69
2023-01-20T17:19:57.333Z,97015.59
2023-01-20T17:22:23.615Z,97020.69
2023-01-20T17:24:49.924Z,97020.13
2023-01-20T17:27:16.233Z,97023.03
2023-01-20T17:29:42.502Z,97025.22
2023-01-20T17:32:08.760Z,97032.19
2023-01-20T17:34:35.070Z,97029.47
2023-01-20T17:37:01.351Z,97035.34
2023-01-20T17:39:27.628Z,97033.19
2023-01-20T17:41:53.888Z,97027.56
2023-01-20T17:44:20.180Z,97036.91
2023-01-20T17:46:46.633Z,97032.81
2023-01-20T17:49:12.920Z,97042.06
2023-01-20T17:51:39.217Z,97046.88
2023-01-20T17:54:05.514Z,97038.69
2023-01-20T17:56:31.779Z,97043.50
2023-01-20T17:58:58.055Z,97035.06
2023-01-20T18:01:24.386Z,97042.16
2023-01-20T18:03:50.674Z,97037.53
2023-01-20T18:06:16.959Z,97043.50
2023-01-20T18:08:43.446Z,97049.13
2023-01-20T18:11:09.755Z,97046.84
2023-01-20T18:13:36.051Z,97050.66
2023-01-20T18:16:02.347Z,97056.09
2023-01-20T18:18:28.686Z,97058.38
2023-01-20T18:20:54.950Z,97055.09
2023-01-20T18:23:21.316Z,97058.97
2023-01-20T18:25:47.609Z,97055.88
2023-01-20T18:28:13.872Z,97058.38
2023-01-20T18:30:40.251Z,97063.41
2023-01-20T18:33:06.654Z,97069.84
2023-01-20T18:35:32.947Z,97070.06
2023-01-20T18:37:59.247Z,97067.69
2023-01-20T18:40:25.500Z,97073.97
2023-01-20T18:42:51.791Z,97066.16
2023-01-20T18:45:18.059Z,97074.19
2023-01-20T18:47:44.327Z,97068.47
2023-01-20T18:50:10.610Z,97077.03
2023-01-20T18:52:37.038Z,97065.19
2023-01-20T18:55:03.304Z,97073.22
2023-01-20T18:57:29.591Z,97064.16
2023-01-20T18:59:55.878Z,97075.78
2023-01-20T19:02:22.240Z,97076.44
2023-01-20T19:04:48.559Z,97065.75
2023-01-20T19:07:14.838Z,97069.38
2023-01-20T19:09:41.140Z,97070.53
2023-01-20T19:12:07.442Z,97067.25
2023-01-20T19:14:33.698Z,97069.72
2023-01-20T19:16:59.972Z,97064.00
2023-01-20T19:19:26.270Z,97064.34
2023-01-20T19:21:52.574Z,97066.50
2023-01-20T19:24:18.873Z,97067.66
2023-01-20T19:26:45.134Z,97065.19
2023-01-20T19:29:11.420Z,97067.81
2023-01-20T19:31:37.731Z,97068.00
2023-01-20T19:34:04.034Z,97066.19
2023-01-20T19:36:30.303Z,97069.81
2023-01-20T19:38:56.602Z,97072.94
2023-01-20T19:41:22.885Z,97078.19
2023-01-20T19:43:49.163Z,97080.06
2023-01-20T19:46:15.522Z,97078.41
2023-01-20T19:48:41.834Z,97077.13
2023-01-20T19:51:08.162Z,97077.28
2023-01-20T19:53:34.502Z,97077.97
2023-01-20T19:56:00.788Z,97075.19
2023-01-20T19:58:27.112Z,97085.72
2023-01-20T20:00:53.486Z,97085.41
2023-01-20T20:03:19.821Z,97082.59
2023-01-20T20:05:46.098Z,97079.47
2023-01-20T20:08:12.358Z,97074.22
2023-01-20T20:10:38.636Z,97080.78
2023-01-20T20:13:04.959Z,97079.66
2023-01-20T20:15:31.394Z,97081.59
2023-01-20T20:17:57.676Z,97085.72
2023-01-20T20:20:23.940Z,97083.38
2023-01-20T20:22:50.245Z,97090.94
2023-01-20T20:25:16.530Z,97089.59
2023-01-20T20:27:42.851Z,97090.25
2023-01-20T20:30:09.195Z,97090.44
2023-01-20T20:32:35.516Z,97093.06
2023-01-20T20:35:01.812Z,97088.16
2023-01-20T20:37:28.100Z,97089.97
2023-01-20T20:39:54.376Z,97089.97
2023-01-20T20:42:20.666Z,97092.59
2023-01-20T20:44:46.982Z,97095.22
2023-01-20T20:47:14.381Z,97094.72
2023-01-20T20:49:40.651Z,97092.22
2023-01-20T20:52:06.919Z,97096.16
2023-01-20T20:54:33.171Z,97100.09
2023-01-20T20:56:59.430Z,97098.81
2023-01-20T20:59:25.821Z,97104.06
2023-01-20T21:01:52.212Z,97098.66
2023-01-20T21:04:18.612Z,97101.16
2023-01-20T21:06:44.873Z,97094.22
2023-01-20T21:09:11.181Z,97097.50
2023-01-20T21:11:38.465Z,97098.81
2023-01-20T21:14:04.976Z,97094.03
2023-01-20T21:16:31.393Z,97093.53
2023-01-20T21:18:57.682Z,97090.38
2023-01-20T21:21:23.952Z,97091.84
2023-01-20T21:23:50.243Z,97088.22
2023-01-20T21:26:16.517Z,97091.03
2023-01-20T21:28:42.826Z,97091.03
2023-01-20T21:31:09.211Z,97090.69
2023-01-20T21:33:38.064Z,97091.50
2023-01-20T21:36:04.484Z,97086.25
2023-01-20T21:38:30.752Z,97093.81
2023-01-20T21:40:57.036Z,97101.72
2023-01-20T21:43:23.290Z,97092.66
2023-01-20T21:45:49.565Z,97095.78
2023-01-20T21:48:15.851Z,97101.19
2023-01-20T21:50:42.152Z,97095.78
2023-01-20T21:53:08.431Z,97095.44
2023-01-20T21:55:34.724Z,97090.34
2023-01-20T21:58:01.008Z,97097.63
2023-01-20T22:00:27.276Z,97094.16
2023-01-20T22:02:53.535Z,97097.78
2023-01-20T22:05:19.803Z,97093.34
2023-01-20T22:07:46.317Z,97098.09
2023-01-20T22:10:12.584Z,97096.13
2023-01-20T22:12:38.866Z,97098.25
2023-01-20T22:15:05.148Z,97100.06
2023-01-20T22:17:31.505Z,97097.13
2023-01-20T22:19:57.778Z,97095.00
2023-01-20T22:22:24.052Z,97097.28
2023-01-20T22:24:50.361Z,97100.88
2023-01-20T22:27:16.616Z,97092.53
2023-01-20T22:29:42.877Z,97091.41
2023-01-20T22:32:09.158Z,97094.50
2023-01-20T22:34:35.482Z,97095.47
2023-01-20T22:37:01.787Z,97097.91
2023-01-20T22:39:28.072Z,97093.00
2023-01-20T22:41:54.346Z,97090.56
2023-01-20T22:44:20.603Z,97100.59
2023-01-20T22:46:46.852Z,97101.06
2023-01-20T22:49:13.123Z,97093.50
2023-01-20T22:51:39.407Z,97094.78
2023-01-20T22:54:05.684Z,97101.84
2023-01-20T22:56:31.956Z,97094.34
2023-01-20T22:58:58.262Z,97096.97
2023-01-20T23:01:24.676Z,97091.72
2023-01-20T23:03:50.979Z,97100.59
2023-01-20T23:06:17.242Z,97098.28
2023-01-20T23:08:43.534Z,97097.31
2023-01-20T23:11:09.792Z,97103.72
2023-01-20T23:13:36.053Z,97095.31
2023-01-20T23:16:02.325Z,97089.91
2023-01-20T23:18:28.589Z,97090.88
2023-01-20T23:20:54.897Z,97094.94
2023-01-20T23:23:21.184Z,97087.06
2023-01-20T23:25:47.459Z,97092.81
2023-01-20T23:28:13.803Z,97094.09
2023-01-20T23:30:40.141Z,97089.00
2023-01-20T23:33:06.459Z,97089.53
2023-01-20T23:35:32.732Z,97090.69
2023-01-20T23:37:59.008Z,97094.00
2023-01-20T23:40:25.292Z,97101.06
2023-01-20T23:42:51.654Z,97090.72
2023-01-20T23:45:17.931Z,97088.75
2023-01-20T23:47:44.223Z,97092.19
2023-01-20T23:50:10.521Z,97097.44
2023-01-20T23:52:36.799Z,97090.91
2023-01-20T23:55:03.092Z,97094.81
2023-01-20T23:57:29.357Z,97092.53
2023-01-20T23:59:55.628Z,97090.75
